Verona, WI (53593)

5:49 PM CDT on August 24, 2016 (GMT -0500)
Cherrywood | | Change Station

Elev 1129 ft 43.06 °N, 89.60 °W | Updated 18 seconds ago

Overcast
Overcast
81.1 °F
Feels Like 84 °F
N
4.9
Wind Variable Wind from West
Gusts 8.1 mph

Today
High -- | Low -- °F
--% Chance of Precip.
Yesterday
High -- | Low -- °F
Precip. -- in
Pressure 29.92 in
Visibility 10.0 miles
Clouds Mostly Cloudy 2400 ft
Overcast 3200 ft
Heat Index 84 °F
Dew Point 68 °F
Humidity 64%
Rainfall 0.70 in
Snow Depth Not available.
6:14 AM 7:45 PM
Waning Gibbous, 52% visible
METAR KC29 242235Z AUTO 32005KT 10SM BKN024 OVC032 28/23 A2992 RMK AO1 T02810234
Pressure 29.92 in
Visibility 10.0 miles
Clouds Mostly Cloudy 2400 ft
Overcast 3200 ft
Heat Index 84 °F
Dew Point 68 °F
Humidity 64%
Rainfall 0.70 in
Snow Depth Not available.
6:14 AM 7:45 PM
Waning Gibbous, 52% visible
METAR KC29 242235Z AUTO 32005KT 10SM BKN024 OVC032 28/23 A2992 RMK AO1 T02810234

10-Day Weather Forecast

Almanac

Astronomy

Aug. 24, 2016 Rise Set
Actual Time
Civil Twilight
Nautical Twilight
Astronomical Twilight
Moon
Length of Visible Light
Length of Day
Tomorrow will be .
, % of the Moon is Illuminated

Today's Extremes

State Highs State Lows

Community

WunderPhotos

Upload Photos

1,934,728 photos uploaded!

WunderBlog® & News

Nearby

Air Quality

  Air Quality AQ Index Pollutant
Not available.

Snow Depth

Station Depth Elevation

Earthquake Activity

City Distance Mag. Time & Date
Minimum magnitude displayed is 2.5.

Coastal Water Temperatures

Place Temperature

Stations

Nearby Weather Stations

Station Location Temp. Windchill Dew Point Humidity Wind Precip. Elev Updated Type
                   

Watches & Warnings

There are currently no watches in effect.